sensor_id;sensor_type;location;lat;lon;timestamp;P1;durP1;ratioP1;P2;durP2;ratioP2
33170;SDS011;19535;50.672;4.206;2023-01-16T00:01:18;5.07;;;4.53;;
33170;SDS011;19535;50.672;4.206;2023-01-16T00:03:45;4.50;;;4.10;;
33170;SDS011;19535;50.672;4.206;2023-01-16T00:06:12;4.80;;;4.00;;
33170;SDS011;19535;50.672;4.206;2023-01-16T00:08:40;4.20;;;3.80;;
33170;SDS011;19535;50.672;4.206;2023-01-16T00:11:08;4.47;;;4.07;;
33170;SDS011;19535;50.672;4.206;2023-01-16T00:13:36;5.15;;;3.80;;
33170;SDS011;19535;50.672;4.206;2023-01-16T00:16:03;4.93;;;3.80;;
33170;SDS011;19535;50.672;4.206;2023-01-16T00:18:31;3.92;;;3.50;;
33170;SDS011;19535;50.672;4.206;2023-01-16T00:20:58;3.83;;;3.33;;
33170;SDS011;19535;50.672;4.206;2023-01-16T00:23:25;3.65;;;3.42;;
33170;SDS011;19535;50.672;4.206;2023-01-16T00:25:52;3.92;;;3.30;;
33170;SDS011;19535;50.672;4.206;2023-01-16T00:28:18;3.83;;;3.47;;
33170;SDS011;19535;50.672;4.206;2023-01-16T00:30:46;4.13;;;3.22;;
33170;SDS011;19535;50.672;4.206;2023-01-16T00:33:13;3.40;;;3.10;;
33170;SDS011;19535;50.672;4.206;2023-01-16T00:35:40;3.40;;;3.10;;
33170;SDS011;19535;50.672;4.206;2023-01-16T00:38:07;3.78;;;3.47;;
33170;SDS011;19535;50.672;4.206;2023-01-16T00:40:33;3.38;;;3.08;;
33170;SDS011;19535;50.672;4.206;2023-01-16T00:43:00;3.45;;;3.15;;
33170;SDS011;19535;50.672;4.206;2023-01-16T00:45:27;3.45;;;3.15;;
33170;SDS011;19535;50.672;4.206;2023-01-16T00:47:54;3.65;;;3.00;;
33170;SDS011;19535;50.672;4.206;2023-01-16T00:50:21;3.35;;;3.05;;
33170;SDS011;19535;50.672;4.206;2023-01-16T00:52:48;3.30;;;3.00;;
33170;SDS011;19535;50.672;4.206;2023-01-16T00:55:15;3.03;;;2.72;;
33170;SDS011;19535;50.672;4.206;2023-01-16T00:57:41;3.08;;;2.88;;
33170;SDS011;19535;50.672;4.206;2023-01-16T01:00:08;3.13;;;2.72;;
33170;SDS011;19535;50.672;4.206;2023-01-16T01:02:36;3.45;;;3.15;;
33170;SDS011;19535;50.672;4.206;2023-01-16T01:05:03;2.80;;;2.60;;
33170;SDS011;19535;50.672;4.206;2023-01-16T01:07:32;3.78;;;2.97;;
33170;SDS011;19535;50.672;4.206;2023-01-16T01:09:59;3.58;;;2.90;;
33170;SDS011;19535;50.672;4.206;2023-01-16T01:12:26;3.35;;;2.50;;
33170;SDS011;19535;50.672;4.206;2023-01-16T01:14:53;3.28;;;2.50;;
33170;SDS011;19535;50.672;4.206;2023-01-16T01:17:20;2.50;;;2.30;;
33170;SDS011;19535;50.672;4.206;2023-01-16T01:19:46;2.97;;;2.70;;
33170;SDS011;19535;50.672;4.206;2023-01-16T01:22:14;2.67;;;2.45;;
33170;SDS011;19535;50.672;4.206;2023-01-16T01:24:42;2.90;;;2.60;;
33170;SDS011;19535;50.672;4.206;2023-01-16T01:27:10;2.83;;;2.40;;
33170;SDS011;19535;50.672;4.206;2023-01-16T01:29:37;3.05;;;2.80;;
33170;SDS011;19535;50.672;4.206;2023-01-16T01:32:04;2.80;;;2.60;;
33170;SDS011;19535;50.672;4.206;2023-01-16T01:34:32;2.63;;;2.42;;
33170;SDS011;19535;50.672;4.206;2023-01-16T01:37:05;2.88;;;2.28;;
33170;SDS011;19535;50.672;4.206;2023-01-16T01:39:33;3.60;;;2.45;;
33170;SDS011;19535;50.672;4.206;2023-01-16T01:42:00;2.63;;;2.42;;
33170;SDS011;19535;50.672;4.206;2023-01-16T01:44:53;2.72;;;2.53;;
33170;SDS011;19535;50.672;4.206;2023-01-16T01:47:35;2.45;;;2.25;;
33170;SDS011;19535;50.672;4.206;2023-01-16T01:50:09;2.88;;;2.30;;
33170;SDS011;19535;50.672;4.206;2023-01-16T01:52:41;2.50;;;2.30;;
33170;SDS011;19535;50.672;4.206;2023-01-16T01:55:08;2.67;;;2.28;;
33170;SDS011;19535;50.672;4.206;2023-01-16T01:57:41;2.60;;;2.40;;
33170;SDS011;19535;50.672;4.206;2023-01-16T02:00:19;2.50;;;2.22;;
33170;SDS011;19535;50.672;4.206;2023-01-16T02:05:38;1.75;;;1.55;;
33170;SDS011;19535;50.672;4.206;2023-01-16T02:08:14;2.20;;;2.00;;
33170;SDS011;19535;50.672;4.206;2023-01-16T02:10:51;2.65;;;2.28;;
33170;SDS011;19535;50.672;4.206;2023-01-16T02:13:19;2.38;;;2.13;;
33170;SDS011;19535;50.672;4.206;2023-01-16T02:15:46;2.65;;;2.20;;
33170;SDS011;19535;50.672;4.206;2023-01-16T02:18:32;2.22;;;2.00;;
33170;SDS011;19535;50.672;4.206;2023-01-16T02:33:31;2.45;;;2.13;;
33170;SDS011;19535;50.672;4.206;2023-01-16T02:35:37;2.13;;;1.83;;
33170;SDS011;19535;50.672;4.206;2023-01-16T02:41:05;2.90;;;1.85;;
33170;SDS011;19535;50.672;4.206;2023-01-16T02:46:20;3.45;;;2.10;;
33170;SDS011;19535;50.672;4.206;2023-01-16T02:51:51;2.25;;;1.70;;
33170;SDS011;19535;50.672;4.206;2023-01-16T02:54:26;1.88;;;1.60;;
33170;SDS011;19535;50.672;4.206;2023-01-16T02:57:07;2.30;;;1.90;;
33170;SDS011;19535;50.672;4.206;2023-01-16T02:59:36;1.70;;;1.60;;
33170;SDS011;19535;50.672;4.206;2023-01-16T03:02:06;1.83;;;1.65;;
33170;SDS011;19535;50.672;4.206;2023-01-16T03:10:18;2.47;;;2.05;;
33170;SDS011;19535;50.672;4.206;2023-01-16T03:21:12;1.75;;;1.60;;
33170;SDS011;19535;50.672;4.206;2023-01-16T03:23:50;2.22;;;1.45;;
33170;SDS011;19535;50.672;4.206;2023-01-16T03:26:26;1.92;;;1.58;;
33170;SDS011;19535;50.672;4.206;2023-01-16T03:31:39;1.83;;;1.52;;
33170;SDS011;19535;50.672;4.206;2023-01-16T03:39:21;1.42;;;1.17;;
33170;SDS011;19535;50.672;4.206;2023-01-16T03:41:55;1.50;;;1.38;;
33170;SDS011;19535;50.672;4.206;2023-01-16T03:44:30;1.65;;;1.40;;
33170;SDS011;19535;50.672;4.206;2023-01-16T03:47:01;1.95;;;1.40;;
33170;SDS011;19535;50.672;4.206;2023-01-16T03:49:34;2.20;;;1.52;;
33170;SDS011;19535;50.672;4.206;2023-01-16T03:52:05;2.80;;;1.40;;
33170;SDS011;19535;50.672;4.206;2023-01-16T03:54:55;2.03;;;1.38;;
33170;SDS011;19535;50.672;4.206;2023-01-16T03:57:32;1.25;;;1.15;;
33170;SDS011;19535;50.672;4.206;2023-01-16T04:00:03;1.38;;;1.27;;
33170;SDS011;19535;50.672;4.206;2023-01-16T04:10:12;1.30;;;1.20;;
33170;SDS011;19535;50.672;4.206;2023-01-16T04:12:43;1.45;;;1.10;;
33170;SDS011;19535;50.672;4.206;2023-01-16T04:15:13;1.60;;;1.27;;
33170;SDS011;19535;50.672;4.206;2023-01-16T04:17:41;1.25;;;1.10;;
33170;SDS011;19535;50.672;4.206;2023-01-16T04:20:08;1.17;;;1.08;;
33170;SDS011;19535;50.672;4.206;2023-01-16T04:22:36;1.52;;;1.13;;
33170;SDS011;19535;50.672;4.206;2023-01-16T04:25:04;1.90;;;1.27;;
33170;SDS011;19535;50.672;4.206;2023-01-16T04:27:34;1.35;;;1.02;;
33170;SDS011;19535;50.672;4.206;2023-01-16T04:30:04;1.83;;;1.30;;
33170;SDS011;19535;50.672;4.206;2023-01-16T04:32:31;2.17;;;1.08;;
33170;SDS011;19535;50.672;4.206;2023-01-16T04:34:58;1.70;;;0.90;;
33170;SDS011;19535;50.672;4.206;2023-01-16T04:37:25;1.48;;;1.08;;
33170;SDS011;19535;50.672;4.206;2023-01-16T04:39:52;1.85;;;1.20;;
33170;SDS011;19535;50.672;4.206;2023-01-16T04:42:19;1.30;;;1.05;;
33170;SDS011;19535;50.672;4.206;2023-01-16T04:44:46;1.50;;;1.10;;
33170;SDS011;19535;50.672;4.206;2023-01-16T04:47:13;1.42;;;1.20;;
33170;SDS011;19535;50.672;4.206;2023-01-16T04:49:40;1.27;;;0.90;;
33170;SDS011;19535;50.672;4.206;2023-01-16T04:52:06;1.27;;;1.00;;
33170;SDS011;19535;50.672;4.206;2023-01-16T04:54:33;1.58;;;1.00;;
33170;SDS011;19535;50.672;4.206;2023-01-16T04:57:00;1.30;;;0.90;;
33170;SDS011;19535;50.672;4.206;2023-01-16T04:59:27;1.42;;;0.90;;
33170;SDS011;19535;50.672;4.206;2023-01-16T05:01:54;1.15;;;1.02;;
33170;SDS011;19535;50.672;4.206;2023-01-16T05:04:21;1.67;;;1.38;;
33170;SDS011;19535;50.672;4.206;2023-01-16T05:06:48;1.17;;;0.95;;
33170;SDS011;19535;50.672;4.206;2023-01-16T05:09:15;1.38;;;0.70;;
33170;SDS011;19535;50.672;4.206;2023-01-16T05:11:42;1.02;;;0.90;;
33170;SDS011;19535;50.672;4.206;2023-01-16T05:14:09;1.25;;;0.90;;
33170;SDS011;19535;50.672;4.206;2023-01-16T05:16:37;1.17;;;0.82;;
33170;SDS011;19535;50.672;4.206;2023-01-16T05:21:33;1.17;;;0.77;;
33170;SDS011;19535;50.672;4.206;2023-01-16T05:24:00;0.88;;;0.75;;
33170;SDS011;19535;50.672;4.206;2023-01-16T05:26:27;1.10;;;0.77;;
33170;SDS011;19535;50.672;4.206;2023-01-16T05:28:54;2.00;;;0.98;;
33170;SDS011;19535;50.672;4.206;2023-01-16T05:31:21;1.20;;;0.70;;
33170;SDS011;19535;50.672;4.206;2023-01-16T05:33:48;0.98;;;0.82;;
33170;SDS011;19535;50.672;4.206;2023-01-16T05:36:15;1.67;;;0.90;;
33170;SDS011;19535;50.672;4.206;2023-01-16T05:38:42;1.73;;;0.90;;
33170;SDS011;19535;50.672;4.206;2023-01-16T05:41:09;1.17;;;0.70;;
33170;SDS011;19535;50.672;4.206;2023-01-16T05:43:36;0.90;;;0.65;;
33170;SDS011;19535;50.672;4.206;2023-01-16T05:46:03;1.00;;;0.80;;
33170;SDS011;19535;50.672;4.206;2023-01-16T05:48:30;1.05;;;0.73;;
33170;SDS011;19535;50.672;4.206;2023-01-16T05:51:00;0.70;;;0.60;;
33170;SDS011;19535;50.672;4.206;2023-01-16T05:53:27;0.80;;;0.60;;
33170;SDS011;19535;50.672;4.206;2023-01-16T05:55:56;1.00;;;0.70;;
33170;SDS011;19535;50.672;4.206;2023-01-16T05:58:24;1.52;;;0.77;;
33170;SDS011;19535;50.672;4.206;2023-01-16T06:00:51;0.80;;;0.50;;
33170;SDS011;19535;50.672;4.206;2023-01-16T06:03:17;0.55;;;0.47;;
33170;SDS011;19535;50.672;4.206;2023-01-16T06:05:44;0.40;;;0.40;;
33170;SDS011;19535;50.672;4.206;2023-01-16T06:08:11;0.60;;;0.35;;
33170;SDS011;19535;50.672;4.206;2023-01-16T06:10:38;1.30;;;0.70;;
33170;SDS011;19535;50.672;4.206;2023-01-16T06:13:05;0.80;;;0.40;;
33170;SDS011;19535;50.672;4.206;2023-01-16T06:15:32;0.57;;;0.40;;
33170;SDS011;19535;50.672;4.206;2023-01-16T06:17:59;0.82;;;0.43;;
33170;SDS011;19535;50.672;4.206;2023-01-16T06:20:26;0.60;;;0.43;;
33170;SDS011;19535;50.672;4.206;2023-01-16T06:22:53;0.68;;;0.35;;
33170;SDS011;19535;50.672;4.206;2023-01-16T06:25:20;0.68;;;0.30;;
33170;SDS011;19535;50.672;4.206;2023-01-16T06:27:47;0.55;;;0.45;;
33170;SDS011;19535;50.672;4.206;2023-01-16T06:30:15;0.55;;;0.38;;
33170;SDS011;19535;50.672;4.206;2023-01-16T06:32:43;0.60;;;0.43;;
33170;SDS011;19535;50.672;4.206;2023-01-16T06:35:14;0.60;;;0.45;;
33170;SDS011;19535;50.672;4.206;2023-01-16T06:37:41;0.63;;;0.32;;
33170;SDS011;19535;50.672;4.206;2023-01-16T06:40:08;0.50;;;0.40;;
33170;SDS011;19535;50.672;4.206;2023-01-16T06:42:37;0.43;;;0.30;;
33170;SDS011;19535;50.672;4.206;2023-01-16T06:45:05;0.57;;;0.30;;
33170;SDS011;19535;50.672;4.206;2023-01-16T06:47:32;0.85;;;0.47;;
33170;SDS011;19535;50.672;4.206;2023-01-16T06:49:59;0.32;;;0.30;;
33170;SDS011;19535;50.672;4.206;2023-01-16T06:52:35;0.20;;;0.20;;
33170;SDS011;19535;50.672;4.206;2023-01-16T06:55:04;0.40;;;0.40;;
33170;SDS011;19535;50.672;4.206;2023-01-16T06:57:31;0.73;;;0.25;;
33170;SDS011;19535;50.672;4.206;2023-01-16T06:59:58;0.20;;;0.20;;
33170;SDS011;19535;50.672;4.206;2023-01-16T07:02:25;0.30;;;0.30;;
33170;SDS011;19535;50.672;4.206;2023-01-16T07:04:52;0.30;;;0.30;;
33170;SDS011;19535;50.672;4.206;2023-01-16T07:07:19;0.52;;;0.30;;
33170;SDS011;19535;50.672;4.206;2023-01-16T07:09:46;0.22;;;0.22;;
33170;SDS011;19535;50.672;4.206;2023-01-16T07:12:12;1.65;;;0.20;;
33170;SDS011;19535;50.672;4.206;2023-01-16T07:14:39;0.40;;;0.40;;
33170;SDS011;19535;50.672;4.206;2023-01-16T07:17:25;7.13;;;6.47;;
33170;SDS011;19535;50.672;4.206;2023-01-16T07:20:10;71.75;;;63.97;;
33170;SDS011;19535;50.672;4.206;2023-01-16T07:22:55;58.20;;;52.33;;
33170;SDS011;19535;50.672;4.206;2023-01-16T07:25:29;46.45;;;41.95;;
33170;SDS011;19535;50.672;4.206;2023-01-16T07:27:58;38.92;;;35.30;;
33170;SDS011;19535;50.672;4.206;2023-01-16T07:30:25;34.55;;;31.23;;
33170;SDS011;19535;50.672;4.206;2023-01-16T07:32:52;30.00;;;27.27;;
33170;SDS011;19535;50.672;4.206;2023-01-16T07:35:19;26.35;;;24.10;;
33170;SDS011;19535;50.672;4.206;2023-01-16T07:37:46;23.50;;;21.52;;
33170;SDS011;19535;50.672;4.206;2023-01-16T07:40:13;21.33;;;19.35;;
33170;SDS011;19535;50.672;4.206;2023-01-16T07:42:40;18.50;;;16.90;;
33170;SDS011;19535;50.672;4.206;2023-01-16T07:45:07;17.77;;;16.27;;
33170;SDS011;19535;50.672;4.206;2023-01-16T07:47:34;16.27;;;14.88;;
33170;SDS011;19535;50.672;4.206;2023-01-16T07:50:01;15.55;;;14.27;;
33170;SDS011;19535;50.672;4.206;2023-01-16T07:52:29;14.38;;;13.18;;
33170;SDS011;19535;50.672;4.206;2023-01-16T07:54:55;13.90;;;12.70;;
33170;SDS011;19535;50.672;4.206;2023-01-16T07:57:22;12.30;;;11.20;;
33170;SDS011;19535;50.672;4.206;2023-01-16T07:59:51;13.00;;;11.80;;
33170;SDS011;19535;50.672;4.206;2023-01-16T08:02:21;11.27;;;10.27;;
33170;SDS011;19535;50.672;4.206;2023-01-16T08:04:48;13.85;;;12.75;;
33170;SDS011;19535;50.672;4.206;2023-01-16T08:07:15;45.97;;;41.58;;
33170;SDS011;19535;50.672;4.206;2023-01-16T08:09:42;50.05;;;45.13;;
33170;SDS011;19535;50.672;4.206;2023-01-16T08:12:09;43.85;;;39.38;;
33170;SDS011;19535;50.672;4.206;2023-01-16T08:14:35;41.50;;;37.53;;
33170;SDS011;19535;50.672;4.206;2023-01-16T08:17:02;36.28;;;32.88;;
33170;SDS011;19535;50.672;4.206;2023-01-16T08:24:29;24.88;;;22.67;;
33170;SDS011;19535;50.672;4.206;2023-01-16T08:26:56;22.48;;;20.48;;
33170;SDS011;19535;50.672;4.206;2023-01-16T08:29:23;22.75;;;20.85;;
33170;SDS011;19535;50.672;4.206;2023-01-16T08:31:50;38.53;;;35.13;;
33170;SDS011;19535;50.672;4.206;2023-01-16T08:34:18;34.95;;;31.75;;
33170;SDS011;19535;50.672;4.206;2023-01-16T08:36:44;29.75;;;27.08;;
33170;SDS011;19535;50.672;4.206;2023-01-16T08:39:11;29.95;;;27.25;;
33170;SDS011;19535;50.672;4.206;2023-01-16T08:41:38;26.40;;;23.90;;
33170;SDS011;19535;50.672;4.206;2023-01-16T08:44:24;24.58;;;22.23;;
33170;SDS011;19535;50.672;4.206;2023-01-16T08:47:27;22.38;;;20.48;;
33170;SDS011;19535;50.672;4.206;2023-01-16T08:50:13;19.33;;;17.52;;
33170;SDS011;19535;50.672;4.206;2023-01-16T08:53:00;18.48;;;16.73;;
33170;SDS011;19535;50.672;4.206;2023-01-16T08:55:27;17.88;;;16.38;;
33170;SDS011;19535;50.672;4.206;2023-01-16T08:57:54;17.40;;;16.00;;
33170;SDS011;19535;50.672;4.206;2023-01-16T09:00:25;16.05;;;14.75;;
33170;SDS011;19535;50.672;4.206;2023-01-16T09:02:53;15.15;;;13.85;;
33170;SDS011;19535;50.672;4.206;2023-01-16T09:05:21;14.93;;;13.45;;
33170;SDS011;19535;50.672;4.206;2023-01-16T09:07:48;15.18;;;13.98;;
33170;SDS011;19535;50.672;4.206;2023-01-16T09:10:15;14.27;;;13.10;;
33170;SDS011;19535;50.672;4.206;2023-01-16T09:12:42;13.38;;;12.27;;
33170;SDS011;19535;50.672;4.206;2023-01-16T09:15:28;67.10;;;60.13;;
33170;SDS011;19535;50.672;4.206;2023-01-16T09:17:57;89.05;;;78.53;;
33170;SDS011;19535;50.672;4.206;2023-01-16T09:20:24;80.60;;;72.00;;
33170;SDS011;19535;50.672;4.206;2023-01-16T09:22:58;70.38;;;62.42;;
33170;SDS011;19535;50.672;4.206;2023-01-16T09:25:26;60.75;;;54.28;;
33170;SDS011;19535;50.672;4.206;2023-01-16T09:27:54;52.95;;;47.55;;
33170;SDS011;19535;50.672;4.206;2023-01-16T09:30:21;47.05;;;42.50;;
33170;SDS011;19535;50.672;4.206;2023-01-16T09:32:48;40.80;;;36.78;;
33170;SDS011;19535;50.672;4.206;2023-01-16T09:35:15;38.25;;;34.75;;
33170;SDS011;19535;50.672;4.206;2023-01-16T09:37:43;34.78;;;31.58;;
33170;SDS011;19535;50.672;4.206;2023-01-16T09:40:20;33.97;;;30.80;;
33170;SDS011;19535;50.672;4.206;2023-01-16T09:45:33;29.92;;;26.95;;
33170;SDS011;19535;50.672;4.206;2023-01-16T09:48:07;29.23;;;26.30;;
33170;SDS011;19535;50.672;4.206;2023-01-16T09:50:49;25.58;;;23.15;;
33170;SDS011;19535;50.672;4.206;2023-01-16T09:53:51;23.92;;;21.83;;
33170;SDS011;19535;50.672;4.206;2023-01-16T09:56:40;22.45;;;20.55;;
33170;SDS011;19535;50.672;4.206;2023-01-16T09:59:32;20.80;;;19.00;;
33170;SDS011;19535;50.672;4.206;2023-01-16T10:02:05;20.98;;;19.20;;
33170;SDS011;19535;50.672;4.206;2023-01-16T10:04:48;21.27;;;19.27;;
33170;SDS011;19535;50.672;4.206;2023-01-16T10:18:40;16.38;;;14.82;;
33170;SDS011;19535;50.672;4.206;2023-01-16T10:24:05;16.48;;;15.07;;
33170;SDS011;19535;50.672;4.206;2023-01-16T10:29:33;15.43;;;13.90;;
33170;SDS011;19535;50.672;4.206;2023-01-16T10:32:12;14.88;;;13.27;;
33170;SDS011;19535;50.672;4.206;2023-01-16T10:35:06;13.95;;;12.65;;
33170;SDS011;19535;50.672;4.206;2023-01-16T10:37:48;13.80;;;12.45;;
33170;SDS011;19535;50.672;4.206;2023-01-16T10:40:18;13.65;;;12.25;;
33170;SDS011;19535;50.672;4.206;2023-01-16T10:42:50;12.32;;;11.20;;
33170;SDS011;19535;50.672;4.206;2023-01-16T10:45:46;11.63;;;10.50;;
33170;SDS011;19535;50.672;4.206;2023-01-16T10:48:33;13.15;;;11.20;;
33170;SDS011;19535;50.672;4.206;2023-01-16T10:51:18;12.75;;;10.45;;
33170;SDS011;19535;50.672;4.206;2023-01-16T10:53:45;10.88;;;9.98;;
33170;SDS011;19535;50.672;4.206;2023-01-16T10:56:12;10.43;;;9.52;;
33170;SDS011;19535;50.672;4.206;2023-01-16T10:58:39;9.65;;;8.75;;
33170;SDS011;19535;50.672;4.206;2023-01-16T11:01:16;9.55;;;8.75;;
33170;SDS011;19535;50.672;4.206;2023-01-16T11:06:17;9.07;;;8.38;;
33170;SDS011;19535;50.672;4.206;2023-01-16T11:08:53;8.85;;;8.10;;
33170;SDS011;19535;50.672;4.206;2023-01-16T11:11:21;9.25;;;8.35;;
33170;SDS011;19535;50.672;4.206;2023-01-16T11:14:22;8.65;;;7.75;;
33170;SDS011;19535;50.672;4.206;2023-01-16T11:17:23;8.82;;;6.95;;
33170;SDS011;19535;50.672;4.206;2023-01-16T11:20:20;7.80;;;7.10;;
33170;SDS011;19535;50.672;4.206;2023-01-16T11:22:48;8.05;;;7.30;;
33170;SDS011;19535;50.672;4.206;2023-01-16T11:25:23;7.13;;;6.53;;
33170;SDS011;19535;50.672;4.206;2023-01-16T11:27:52;14.27;;;12.98;;
33170;SDS011;19535;50.672;4.206;2023-01-16T11:30:42;39.17;;;35.03;;
33170;SDS011;19535;50.672;4.206;2023-01-16T11:33:16;27.52;;;24.90;;
33170;SDS011;19535;50.672;4.206;2023-01-16T11:35:55;22.25;;;20.30;;
33170;SDS011;19535;50.672;4.206;2023-01-16T11:38:24;31.17;;;28.48;;
33170;SDS011;19535;50.672;4.206;2023-01-16T11:40:52;27.02;;;24.35;;
33170;SDS011;19535;50.672;4.206;2023-01-16T11:43:23;24.27;;;22.27;;
33170;SDS011;19535;50.672;4.206;2023-01-16T11:49:00;18.60;;;16.83;;
33170;SDS011;19535;50.672;4.206;2023-01-16T11:51:41;16.75;;;15.07;;
33170;SDS011;19535;50.672;4.206;2023-01-16T11:54:16;15.45;;;14.15;;
33170;SDS011;19535;50.672;4.206;2023-01-16T12:02:33;12.27;;;11.18;;
33170;SDS011;19535;50.672;4.206;2023-01-16T12:05:21;14.45;;;13.13;;
33170;SDS011;19535;50.672;4.206;2023-01-16T12:11:13;21.05;;;19.05;;
33170;SDS011;19535;50.672;4.206;2023-01-16T12:25:37;12.95;;;11.85;;
33170;SDS011;19535;50.672;4.206;2023-01-16T12:30:45;12.43;;;11.13;;
33170;SDS011;19535;50.672;4.206;2023-01-16T12:33:28;11.88;;;9.88;;
33170;SDS011;19535;50.672;4.206;2023-01-16T12:36:11;9.98;;;8.95;;
33170;SDS011;19535;50.672;4.206;2023-01-16T12:50:24;8.75;;;8.02;;
33170;SDS011;19535;50.672;4.206;2023-01-16T12:53:22;9.40;;;8.52;;
33170;SDS011;19535;50.672;4.206;2023-01-16T12:58:57;8.80;;;8.00;;
33170;SDS011;19535;50.672;4.206;2023-01-16T13:01:29;13.00;;;11.82;;
33170;SDS011;19535;50.672;4.206;2023-01-16T13:04:00;13.57;;;12.48;;
33170;SDS011;19535;50.672;4.206;2023-01-16T13:06:36;13.45;;;12.05;;
33170;SDS011;19535;50.672;4.206;2023-01-16T13:09:13;15.50;;;14.20;;
33170;SDS011;19535;50.672;4.206;2023-01-16T13:12:10;16.80;;;15.20;;
33170;SDS011;19535;50.672;4.206;2023-01-16T13:15:06;15.18;;;13.77;;
33170;SDS011;19535;50.672;4.206;2023-01-16T13:20:27;11.75;;;10.73;;
33170;SDS011;19535;50.672;4.206;2023-01-16T13:22:56;11.85;;;10.68;;
33170;SDS011;19535;50.672;4.206;2023-01-16T13:25:30;10.93;;;9.93;;
33170;SDS011;19535;50.672;4.206;2023-01-16T13:30:53;10.48;;;9.50;;
33170;SDS011;19535;50.672;4.206;2023-01-16T13:33:22;8.75;;;8.00;;
33170;SDS011;19535;50.672;4.206;2023-01-16T13:39:23;9.68;;;8.82;;
33170;SDS011;19535;50.672;4.206;2023-01-16T13:41:58;8.82;;;7.93;;
33170;SDS011;19535;50.672;4.206;2023-01-16T13:45:15;8.35;;;7.65;;
33170;SDS011;19535;50.672;4.206;2023-01-16T13:47:36;8.23;;;7.47;;
33170;SDS011;19535;50.672;4.206;2023-01-16T13:52:53;7.00;;;6.40;;
33170;SDS011;19535;50.672;4.206;2023-01-16T13:55:31;6.88;;;6.18;;
33170;SDS011;19535;50.672;4.206;2023-01-16T13:58:10;7.07;;;6.47;;
33170;SDS011;19535;50.672;4.206;2023-01-16T14:00:40;6.65;;;6.05;;
33170;SDS011;19535;50.672;4.206;2023-01-16T14:05:49;6.38;;;5.88;;
33170;SDS011;19535;50.672;4.206;2023-01-16T14:08:19;5.90;;;5.40;;
33170;SDS011;19535;50.672;4.206;2023-01-16T14:13:42;5.63;;;5.22;;
33170;SDS011;19535;50.672;4.206;2023-01-16T14:19:13;5.68;;;5.18;;
33170;SDS011;19535;50.672;4.206;2023-01-16T14:21:47;5.45;;;4.95;;
33170;SDS011;19535;50.672;4.206;2023-01-16T14:24:53;5.43;;;4.45;;
33170;SDS011;19535;50.672;4.206;2023-01-16T14:27:24;5.65;;;5.10;;
33170;SDS011;19535;50.672;4.206;2023-01-16T14:29:56;5.25;;;4.85;;
33170;SDS011;19535;50.672;4.206;2023-01-16T14:32:27;4.40;;;4.10;;
33170;SDS011;19535;50.672;4.206;2023-01-16T14:35:00;5.20;;;4.80;;
33170;SDS011;19535;50.672;4.206;2023-01-16T14:37:39;5.03;;;4.55;;
33170;SDS011;19535;50.672;4.206;2023-01-16T14:42:37;5.55;;;4.05;;
33170;SDS011;19535;50.672;4.206;2023-01-16T14:45:36;4.15;;;3.85;;
33170;SDS011;19535;50.672;4.206;2023-01-16T14:56:49;14.70;;;13.30;;
33170;SDS011;19535;50.672;4.206;2023-01-16T14:59:22;11.50;;;10.50;;
33170;SDS011;19535;50.672;4.206;2023-01-16T15:01:57;9.98;;;9.18;;
33170;SDS011;19535;50.672;4.206;2023-01-16T15:07:26;8.15;;;7.45;;
33170;SDS011;19535;50.672;4.206;2023-01-16T15:10:05;6.63;;;6.13;;
33170;SDS011;19535;50.672;4.206;2023-01-16T15:12:44;6.00;;;5.43;;
33170;SDS011;19535;50.672;4.206;2023-01-16T15:17:47;16.08;;;14.70;;
33170;SDS011;19535;50.672;4.206;2023-01-16T15:20:37;14.30;;;12.90;;
33170;SDS011;19535;50.672;4.206;2023-01-16T15:23:33;12.60;;;11.52;;
33170;SDS011;19535;50.672;4.206;2023-01-16T15:33:39;7.35;;;6.75;;
33170;SDS011;19535;50.672;4.206;2023-01-16T15:42:02;6.13;;;5.57;;
33170;SDS011;19535;50.672;4.206;2023-01-16T15:44:59;5.95;;;5.45;;
33170;SDS011;19535;50.672;4.206;2023-01-16T15:52:54;4.97;;;4.57;;
33170;SDS011;19535;50.672;4.206;2023-01-16T15:55:22;4.95;;;4.55;;
33170;SDS011;19535;50.672;4.206;2023-01-16T15:57:54;4.20;;;3.85;;
33170;SDS011;19535;50.672;4.206;2023-01-16T16:00:31;4.22;;;3.92;;
33170;SDS011;19535;50.672;4.206;2023-01-16T16:03:13;7.90;;;7.10;;
33170;SDS011;19535;50.672;4.206;2023-01-16T16:06:04;10.50;;;8.90;;
33170;SDS011;19535;50.672;4.206;2023-01-16T16:08:35;9.02;;;8.10;;
33170;SDS011;19535;50.672;4.206;2023-01-16T16:11:13;7.50;;;6.90;;
33170;SDS011;19535;50.672;4.206;2023-01-16T16:14:19;6.82;;;6.22;;
33170;SDS011;19535;50.672;4.206;2023-01-16T16:17:33;5.47;;;5.00;;
33170;SDS011;19535;50.672;4.206;2023-01-16T16:20:27;4.38;;;4.07;;
33170;SDS011;19535;50.672;4.206;2023-01-16T16:25:45;5.10;;;4.15;;
33170;SDS011;19535;50.672;4.206;2023-01-16T16:28:27;4.10;;;3.80;;
33170;SDS011;19535;50.672;4.206;2023-01-16T16:36:50;3.35;;;3.05;;
33170;SDS011;19535;50.672;4.206;2023-01-16T16:39:59;3.20;;;3.00;;
33170;SDS011;19535;50.672;4.206;2023-01-16T16:47:44;2.47;;;2.28;;
33170;SDS011;19535;50.672;4.206;2023-01-16T16:56:05;2.63;;;2.42;;
33170;SDS011;19535;50.672;4.206;2023-01-16T16:58:34;2.20;;;2.10;;
33170;SDS011;19535;50.672;4.206;2023-01-16T17:01:11;1.92;;;1.80;;
33170;SDS011;19535;50.672;4.206;2023-01-16T17:03:58;2.30;;;2.10;;
33170;SDS011;19535;50.672;4.206;2023-01-16T17:06:39;2.42;;;2.15;;
33170;SDS011;19535;50.672;4.206;2023-01-16T17:09:15;3.55;;;1.90;;
33170;SDS011;19535;50.672;4.206;2023-01-16T17:14:40;1.85;;;1.75;;
33170;SDS011;19535;50.672;4.206;2023-01-16T17:17:09;1.80;;;1.70;;
33170;SDS011;19535;50.672;4.206;2023-01-16T17:19:41;1.60;;;1.50;;
33170;SDS011;19535;50.672;4.206;2023-01-16T17:22:28;1.95;;;1.80;;
33170;SDS011;19535;50.672;4.206;2023-01-16T17:24:55;1.70;;;1.60;;
33170;SDS011;19535;50.672;4.206;2023-01-16T17:27:21;2.22;;;1.73;;
33170;SDS011;19535;50.672;4.206;2023-01-16T17:29:48;1.60;;;1.50;;
33170;SDS011;19535;50.672;4.206;2023-01-16T17:35:15;1.60;;;1.50;;
33170;SDS011;19535;50.672;4.206;2023-01-16T17:37:42;1.70;;;1.60;;
33170;SDS011;19535;50.672;4.206;2023-01-16T17:40:09;1.70;;;1.60;;
33170;SDS011;19535;50.672;4.206;2023-01-16T17:42:36;1.65;;;1.30;;
33170;SDS011;19535;50.672;4.206;2023-01-16T17:45:24;1.50;;;1.40;;
33170;SDS011;19535;50.672;4.206;2023-01-16T17:48:22;28.30;;;25.73;;
33170;SDS011;19535;50.672;4.206;2023-01-16T17:50:49;26.48;;;24.00;;
33170;SDS011;19535;50.672;4.206;2023-01-16T17:53:17;18.02;;;16.42;;
33170;SDS011;19535;50.672;4.206;2023-01-16T17:55:46;18.02;;;16.20;;
33170;SDS011;19535;50.672;4.206;2023-01-16T17:58:20;14.95;;;13.65;;
33170;SDS011;19535;50.672;4.206;2023-01-16T18:00:55;16.10;;;14.60;;
33170;SDS011;19535;50.672;4.206;2023-01-16T18:03:23;15.73;;;14.33;;
33170;SDS011;19535;50.672;4.206;2023-01-16T18:05:50;16.50;;;13.82;;
33170;SDS011;19535;50.672;4.206;2023-01-16T18:08:17;15.30;;;14.00;;
33170;SDS011;19535;50.672;4.206;2023-01-16T18:10:45;14.77;;;13.48;;
33170;SDS011;19535;50.672;4.206;2023-01-16T18:16:24;13.88;;;11.05;;
33170;SDS011;19535;50.672;4.206;2023-01-16T18:19:09;11.90;;;10.90;;
33170;SDS011;19535;50.672;4.206;2023-01-16T18:21:54;11.55;;;10.35;;
33170;SDS011;19535;50.672;4.206;2023-01-16T18:24:38;10.30;;;9.35;;
33170;SDS011;19535;50.672;4.206;2023-01-16T18:27:06;10.10;;;9.23;;
33170;SDS011;19535;50.672;4.206;2023-01-16T18:29:45;10.25;;;9.27;;
33170;SDS011;19535;50.672;4.206;2023-01-16T18:32:30;9.35;;;8.55;;
33170;SDS011;19535;50.672;4.206;2023-01-16T18:35:00;8.67;;;7.87;;
33170;SDS011;19535;50.672;4.206;2023-01-16T18:37:33;7.35;;;6.68;;
33170;SDS011;19535;50.672;4.206;2023-01-16T18:40:11;7.55;;;6.95;;